Time;durP1;ratioP1;P1;durP2;ratioP2;P2;SDS_P1;SDS_P2;PMS_P1;PMS_P2;Temp;Humidity;BMP_temperature;BMP_pressure;BME280_temperature;BME280_humidity;BME280_pressure;Samples;Min_cycle;Max_cycle;Signal;HPM_P1;HPM_P2
2022/03/29 00:01:17;;;;;;;;;;;6.80;99.90;;;;;;5029205;28;19925;-75
2022/03/29 00:03:44;;;;;;;;;;;6.80;99.90;;;;;;5028825;28;19933;-75
2022/03/29 00:06:10;;;;;;;;;;;6.80;99.90;;;;;;5018436;28;19926;-75
2022/03/29 00:08:37;;;;;;;;;;;6.80;99.90;;;;;;5026925;28;19932;-78
2022/03/29 00:11:03;;;;;;;;;;;6.80;99.90;;;;;;5007656;28;19929;-74
2022/03/29 00:13:30;;;;;;;;;;;6.70;99.90;;;;;;5011554;28;19925;-74
2022/03/29 00:15:56;;;;;;;;;;;6.80;99.90;;;;;;5040204;28;19933;-75
2022/03/29 00:18:23;;;;;;;;;;;6.80;99.90;;;;;;5036345;28;19925;-76
2022/03/29 00:20:49;;;;;;;;;;;6.80;99.90;;;;;;5025369;28;19925;-75
2022/03/29 00:23:18;;;;;;;;;;;6.60;99.90;;;;;;5022256;28;20303;-74
2022/03/29 00:25:44;;;;;;;;;;;6.60;99.90;;;;;;5014466;28;20350;-75
2022/03/29 00:28:11;;;;;;;;;;;6.70;99.90;;;;;;5022079;28;19925;-74
2022/03/29 00:30:38;;;;;;;;;;;6.80;99.90;;;;;;5020364;28;20274;-77
2022/03/29 00:33:05;;;;;;;;;;;6.80;99.90;;;;;;5013974;28;19940;-75
2022/03/29 00:35:31;;;;;;;;;;;6.70;99.90;;;;;;5028545;28;19925;-74
2022/03/29 00:37:58;;;;;;;;;;;6.80;99.90;;;;;;5012154;28;19968;-75
2022/03/29 00:40:24;;;;;;;;;;;6.90;99.90;;;;;;5008152;28;19937;-74
2022/03/29 00:42:51;;;;;;;;;;;6.80;99.90;;;;;;5022841;28;19925;-75
2022/03/29 00:45:17;;;;;;;;;;;6.80;99.90;;;;;;5021688;28;19925;-73
2022/03/29 00:47:44;;;;;;;;;;;6.90;99.90;;;;;;5020757;28;19925;-74
2022/03/29 00:50:10;;;;;;;;;;;6.80;99.90;;;;;;5032434;28;19932;-75
2022/03/29 00:52:37;;;;;;;;;;;6.90;99.90;;;;;;5019993;28;19925;-76
2022/03/29 00:55:05;;;;;;;;;;;7.00;99.90;;;;;;5034094;28;19932;-74
2022/03/29 00:57:32;;;;;;;;;;;7.00;99.90;;;;;;5031467;28;19930;-76
2022/03/29 00:59:59;;;;;;;;;;;7.10;99.90;;;;;;5029843;28;19980;-75
2022/03/29 01:02:26;;;;;;;;;;;7.20;99.90;;;;;;5027503;28;19933;-75
2022/03/29 01:04:52;;;;;;;;;;;7.30;99.90;;;;;;5023124;28;19932;-76
2022/03/29 01:07:19;;;;;;;;;;;7.30;99.90;;;;;;5024211;28;19925;-75
2022/03/29 01:09:45;;;;;;;;;;;7.30;99.90;;;;;;5026323;28;19929;-75
2022/03/29 01:12:12;;;;;;;;;;;7.20;99.90;;;;;;5025464;28;19929;-75
2022/03/29 01:14:38;;;;;;;;;;;7.10;99.90;;;;;;5009768;28;19925;-76
2022/03/29 01:19:50;;;;;;;;;;;7.00;99.90;;;;;;5031862;28;20361;-75
2022/03/29 01:22:16;;;;;;;;;;;6.90;99.90;;;;;;5027416;28;19937;-74
2022/03/29 01:24:43;;;;;;;;;;;6.90;99.90;;;;;;5025874;28;19932;-78
2022/03/29 01:27:09;;;;;;;;;;;6.90;99.90;;;;;;5016835;28;19932;-75
2022/03/29 01:29:36;;;;;;;;;;;6.90;99.90;;;;;;5019834;28;19925;-74
2022/03/29 01:32:02;;;;;;;;;;;6.90;99.90;;;;;;5023392;28;19925;-75
2022/03/29 01:34:29;;;;;;;;;;;6.90;99.90;;;;;;5029277;28;19925;-75
2022/03/29 01:36:56;;;;;;;;;;;7.00;99.90;;;;;;5028737;28;19932;-75
2022/03/29 01:39:23;;;;;;;;;;;7.00;99.90;;;;;;5015874;28;19925;-75
2022/03/29 01:41:49;;;;;;;;;;;6.90;99.90;;;;;;5029200;28;20366;-75
2022/03/29 01:44:16;;;;;;;;;;;6.80;99.90;;;;;;5002519;28;20024;-75
2022/03/29 01:46:43;;;;;;;;;;;6.80;99.90;;;;;;5031926;28;20262;-75
2022/03/29 01:49:10;;;;;;;;;;;6.90;99.90;;;;;;5021407;28;20008;-75
2022/03/29 01:51:36;;;;;;;;;;;7.00;99.90;;;;;;5027654;28;19925;-75
2022/03/29 01:54:03;;;;;;;;;;;7.00;99.90;;;;;;5019527;28;19931;-75
2022/03/29 01:56:31;;;;;;;;;;;6.90;99.90;;;;;;5017275;28;19940;-75
2022/03/29 01:58:57;;;;;;;;;;;6.90;99.90;;;;;;5017074;28;19931;-75
2022/03/29 02:01:24;;;;;;;;;;;7.10;99.90;;;;;;5025934;28;19925;-75
2022/03/29 02:03:50;;;;;;;;;;;7.00;99.90;;;;;;5024027;28;19929;-75
2022/03/29 02:06:17;;;;;;;;;;;7.10;99.90;;;;;;5016988;28;19926;-75
2022/03/29 02:08:43;;;;;;;;;;;7.20;99.90;;;;;;5008690;28;19984;-75
2022/03/29 02:11:10;;;;;;;;;;;7.10;99.90;;;;;;5004933;28;19934;-75
2022/03/29 02:13:38;;;;;;;;;;;7.20;99.90;;;;;;5017120;28;20399;-75
2022/03/29 02:16:05;;;;;;;;;;;7.20;99.90;;;;;;5022109;28;19932;-75
2022/03/29 02:18:31;;;;;;;;;;;7.10;99.90;;;;;;5022542;28;19925;-75
2022/03/29 02:20:58;;;;;;;;;;;7.20;99.90;;;;;;5002453;28;19933;-75
2022/03/29 02:23:24;;;;;;;;;;;7.00;99.90;;;;;;5024241;28;19926;-74
2022/03/29 02:25:51;;;;;;;;;;;7.10;99.90;;;;;;5026752;28;19925;-76
2022/03/29 02:28:17;;;;;;;;;;;7.10;99.90;;;;;;5017513;28;19925;-75
2022/03/29 02:30:44;;;;;;;;;;;7.10;99.90;;;;;;5023676;28;19926;-75
2022/03/29 02:33:10;;;;;;;;;;;7.00;99.90;;;;;;5027192;28;20797;-74
2022/03/29 02:35:37;;;;;;;;;;;7.00;99.90;;;;;;5030278;28;20300;-75
2022/03/29 02:38:05;;;;;;;;;;;7.10;99.90;;;;;;5025467;28;19933;-76
2022/03/29 02:40:31;;;;;;;;;;;7.10;99.90;;;;;;5011363;28;19929;-75
2022/03/29 02:42:58;;;;;;;;;;;7.10;99.90;;;;;;5020775;28;20376;-78
2022/03/29 02:45:24;;;;;;;;;;;7.10;99.90;;;;;;5005344;28;20373;-74
2022/03/29 02:47:51;;;;;;;;;;;7.10;99.90;;;;;;5024160;28;19925;-78
2022/03/29 02:50:17;;;;;;;;;;;7.10;99.90;;;;;;5024881;28;19933;-74
2022/03/29 02:52:44;;;;;;;;;;;7.00;99.90;;;;;;5028317;28;19979;-76
2022/03/29 02:55:11;;;;;;;;;;;7.00;99.90;;;;;;5012124;28;19921;-76
2022/03/29 02:57:37;;;;;;;;;;;7.10;99.90;;;;;;5022044;28;19925;-75
2022/03/29 03:00:05;;;;;;;;;;;7.00;99.90;;;;;;5024887;28;19932;-75
2022/03/29 03:02:32;;;;;;;;;;;6.90;99.90;;;;;;5023307;28;19932;-76
2022/03/29 03:04:59;;;;;;;;;;;6.80;99.90;;;;;;5019004;28;20471;-75
2022/03/29 03:07:26;;;;;;;;;;;6.80;99.90;;;;;;5019119;28;20274;-76
2022/03/29 03:09:52;;;;;;;;;;;6.80;99.90;;;;;;5026958;28;19932;-78
2022/03/29 03:12:19;;;;;;;;;;;6.90;99.90;;;;;;5013064;28;19932;-75
2022/03/29 03:14:46;;;;;;;;;;;6.80;99.90;;;;;;5013945;28;20427;-75
2022/03/29 03:17:13;;;;;;;;;;;6.70;99.90;;;;;;5013887;28;19930;-75
2022/03/29 03:19:39;;;;;;;;;;;6.60;99.90;;;;;;5007891;28;20008;-76
2022/03/29 03:22:06;;;;;;;;;;;6.50;99.90;;;;;;5016630;28;19933;-76
2022/03/29 03:24:33;;;;;;;;;;;6.50;99.90;;;;;;5013017;28;19925;-75
2022/03/29 03:26:59;;;;;;;;;;;6.70;99.90;;;;;;5019564;28;19932;-76
2022/03/29 03:29:26;;;;;;;;;;;6.80;99.90;;;;;;5027177;28;19967;-76
2022/03/29 03:31:52;;;;;;;;;;;6.60;99.90;;;;;;5014354;28;20020;-78
2022/03/29 03:34:19;;;;;;;;;;;6.70;99.90;;;;;;5004480;28;19933;-75
2022/03/29 03:36:45;;;;;;;;;;;6.70;99.90;;;;;;5027323;28;19925;-74
2022/03/29 03:39:12;;;;;;;;;;;6.80;99.90;;;;;;5020299;28;20012;-76
2022/03/29 03:41:40;;;;;;;;;;;6.80;99.90;;;;;;5021917;28;19925;-76
2022/03/29 03:44:06;;;;;;;;;;;6.70;99.90;;;;;;5019802;28;19928;-76
2022/03/29 03:46:33;;;;;;;;;;;6.80;99.90;;;;;;5031628;28;19925;-76
2022/03/29 03:49:00;;;;;;;;;;;6.90;99.90;;;;;;5026468;28;19940;-76
2022/03/29 03:51:27;;;;;;;;;;;6.90;99.90;;;;;;5031339;28;19964;-76
2022/03/29 03:53:53;;;;;;;;;;;6.80;99.90;;;;;;5024760;28;20001;-76
2022/03/29 03:56:20;;;;;;;;;;;6.80;99.90;;;;;;5025825;28;19932;-74
2022/03/29 03:58:46;;;;;;;;;;;6.80;99.90;;;;;;5023786;28;19930;-76
2022/03/29 04:01:13;;;;;;;;;;;6.80;99.90;;;;;;5023967;28;19933;-75
2022/03/29 04:03:39;;;;;;;;;;;6.60;99.90;;;;;;5016539;28;20279;-75
2022/03/29 04:06:06;;;;;;;;;;;6.50;99.90;;;;;;5030684;28;19929;-76
2022/03/29 04:08:32;;;;;;;;;;;6.50;99.90;;;;;;5000280;28;20021;-74
2022/03/29 04:10:59;;;;;;;;;;;6.40;99.90;;;;;;5027659;28;19925;-76
2022/03/29 04:13:26;;;;;;;;;;;6.40;99.90;;;;;;5023860;28;20281;-75
2022/03/29 04:15:52;;;;;;;;;;;6.40;99.90;;;;;;5025808;28;19925;-75
2022/03/29 04:18:19;;;;;;;;;;;6.40;99.90;;;;;;5015752;28;19929;-75
2022/03/29 04:20:46;;;;;;;;;;;6.50;99.90;;;;;;5023236;28;19929;-74
2022/03/29 04:23:12;;;;;;;;;;;6.50;99.90;;;;;;5012012;28;20387;-77
2022/03/29 04:25:39;;;;;;;;;;;6.40;99.90;;;;;;5029032;28;19933;-75
2022/03/29 04:28:05;;;;;;;;;;;6.60;99.90;;;;;;5024845;28;19937;-75
2022/03/29 04:30:32;;;;;;;;;;;6.60;99.90;;;;;;5019257;28;19925;-75
2022/03/29 04:32:59;;;;;;;;;;;6.50;99.90;;;;;;5021191;28;19926;-78
2022/03/29 04:35:26;;;;;;;;;;;6.40;99.90;;;;;;5005695;28;19926;-75
2022/03/29 04:37:53;;;;;;;;;;;6.40;99.90;;;;;;5021238;28;20007;-75
2022/03/29 04:40:20;;;;;;;;;;;6.40;99.90;;;;;;5015239;28;19921;-75
2022/03/29 04:42:46;;;;;;;;;;;6.30;99.90;;;;;;5023610;28;19935;-76
2022/03/29 04:45:13;;;;;;;;;;;6.30;99.90;;;;;;5028908;28;19925;-75
2022/03/29 04:47:40;;;;;;;;;;;6.30;99.90;;;;;;5028959;28;19925;-75
2022/03/29 04:50:06;;;;;;;;;;;6.40;99.90;;;;;;5026791;28;19929;-75
2022/03/29 04:52:33;;;;;;;;;;;6.30;99.90;;;;;;5031023;28;20361;-76
2022/03/29 04:55:00;;;;;;;;;;;6.30;99.90;;;;;;5030063;28;19925;-76
2022/03/29 04:57:26;;;;;;;;;;;6.30;99.90;;;;;;5033022;28;19929;-75
2022/03/29 04:59:53;;;;;;;;;;;6.40;99.90;;;;;;5017937;28;19932;-75
2022/03/29 05:02:20;;;;;;;;;;;6.40;99.90;;;;;;5020516;28;19926;-75
2022/03/29 05:04:46;;;;;;;;;;;6.30;99.90;;;;;;5031082;28;19928;-76
2022/03/29 05:07:13;;;;;;;;;;;6.40;99.90;;;;;;5023758;28;20008;-76
2022/03/29 05:09:39;;;;;;;;;;;6.40;99.90;;;;;;5016253;28;19936;-75
2022/03/29 05:12:06;;;;;;;;;;;6.40;99.90;;;;;;5002197;28;19925;-76
2022/03/29 05:14:34;;;;;;;;;;;6.30;99.90;;;;;;5028026;28;19925;-75
2022/03/29 05:17:00;;;;;;;;;;;6.40;99.90;;;;;;5019889;28;20032;-76
2022/03/29 05:19:27;;;;;;;;;;;6.40;99.90;;;;;;5020761;28;20020;-75
2022/03/29 05:21:53;;;;;;;;;;;6.40;99.90;;;;;;5027011;28;19929;-76
2022/03/29 05:24:20;;;;;;;;;;;6.40;99.90;;;;;;5031881;28;19925;-75
2022/03/29 05:26:46;;;;;;;;;;;6.40;99.90;;;;;;5025994;28;19952;-75
2022/03/29 05:29:13;;;;;;;;;;;6.40;99.90;;;;;;5030687;28;19925;-76
2022/03/29 05:31:40;;;;;;;;;;;6.40;99.90;;;;;;5015941;28;19932;-77
2022/03/29 05:34:06;;;;;;;;;;;6.40;99.90;;;;;;5023837;28;19929;-78
2022/03/29 05:36:33;;;;;;;;;;;6.40;99.90;;;;;;5022946;28;19925;-74
2022/03/29 05:38:59;;;;;;;;;;;6.40;99.90;;;;;;5023634;28;19924;-75
2022/03/29 05:41:26;;;;;;;;;;;6.30;99.90;;;;;;5026877;28;20411;-75
2022/03/29 05:43:53;;;;;;;;;;;6.40;99.90;;;;;;5032813;28;19925;-75
2022/03/29 05:49:04;;;;;;;;;;;6.30;99.90;;;;;;5033154;28;19925;-75
2022/03/29 05:51:31;;;;;;;;;;;6.30;99.90;;;;;;5023286;28;19924;-76
2022/03/29 05:53:57;;;;;;;;;;;6.30;99.90;;;;;;5024549;28;19925;-75
2022/03/29 05:56:24;;;;;;;;;;;6.40;99.90;;;;;;5025973;28;19925;-76
2022/03/29 05:58:50;;;;;;;;;;;6.40;99.90;;;;;;5029096;28;19925;-75
2022/03/29 06:01:18;;;;;;;;;;;6.40;99.90;;;;;;5026860;28;19969;-75
2022/03/29 06:03:45;;;;;;;;;;;6.40;99.90;;;;;;5023212;28;20980;-76
2022/03/29 06:06:13;;;;;;;;;;;6.50;99.90;;;;;;5011988;28;19925;-76
2022/03/29 06:08:40;;;;;;;;;;;6.40;99.90;;;;;;5027835;28;20048;-74
2022/03/29 06:11:07;;;;;;;;;;;6.50;99.90;;;;;;5028437;28;19933;-77
2022/03/29 06:13:33;;;;;;;;;;;6.50;99.90;;;;;;5011246;28;20257;-76
2022/03/29 06:16:00;;;;;;;;;;;6.50;99.90;;;;;;5023972;28;20296;-76
2022/03/29 06:18:26;;;;;;;;;;;6.50;99.90;;;;;;5019215;28;19934;-76
2022/03/29 06:20:53;;;;;;;;;;;6.50;99.90;;;;;;5022562;28;19925;-76
2022/03/29 06:23:19;;;;;;;;;;;6.60;99.90;;;;;;5020988;28;19932;-76
2022/03/29 06:25:47;;;;;;;;;;;6.60;99.90;;;;;;5004972;28;19975;-76
2022/03/29 06:28:14;;;;;;;;;;;6.60;99.90;;;;;;5021895;28;19925;-77
2022/03/29 06:30:40;;;;;;;;;;;6.60;99.90;;;;;;5023081;28;19925;-75
2022/03/29 06:33:07;;;;;;;;;;;6.50;99.90;;;;;;5015520;28;20393;-76
2022/03/29 06:35:35;;;;;;;;;;;6.60;99.90;;;;;;5023897;28;19933;-74
2022/03/29 06:38:01;;;;;;;;;;;6.60;99.90;;;;;;4998209;28;19926;-76
2022/03/29 06:40:28;;;;;;;;;;;6.60;99.90;;;;;;5017541;28;19930;-75
2022/03/29 06:42:55;;;;;;;;;;;6.60;99.90;;;;;;4999076;28;19926;-74
2022/03/29 06:45:21;;;;;;;;;;;6.60;99.90;;;;;;5003144;28;20269;-76
2022/03/29 06:47:48;;;;;;;;;;;6.60;99.90;;;;;;5002710;28;19932;-76
2022/03/29 06:50:15;;;;;;;;;;;6.60;99.90;;;;;;5001584;28;19933;-76
2022/03/29 06:52:41;;;;;;;;;;;6.70;99.90;;;;;;5014539;28;19936;-76
2022/03/29 06:55:08;;;;;;;;;;;6.60;99.90;;;;;;5015895;28;19932;-76
2022/03/29 06:57:35;;;;;;;;;;;6.70;99.90;;;;;;5014152;28;19926;-75
2022/03/29 07:00:02;;;;;;;;;;;6.70;99.90;;;;;;5013836;28;20332;-73
2022/03/29 07:02:29;;;;;;;;;;;6.90;99.90;;;;;;4993911;28;19935;-76
2022/03/29 07:04:55;;;;;;;;;;;7.20;99.90;;;;;;4998530;28;19926;-75
2022/03/29 07:07:22;;;;;;;;;;;7.10;99.90;;;;;;5014074;28;19926;-74
2022/03/29 07:12:34;;;;;;;;;;;7.00;99.90;;;;;;5013117;28;20013;-74
2022/03/29 07:15:00;;;;;;;;;;;6.80;99.90;;;;;;5018558;28;20012;-74
2022/03/29 07:17:27;;;;;;;;;;;6.90;99.90;;;;;;5018136;28;19933;-75
2022/03/29 07:19:53;;;;;;;;;;;7.00;99.90;;;;;;5017177;28;19926;-75
2022/03/29 07:22:23;;;;;;;;;;;6.90;99.90;;;;;;5002265;28;19947;-75
2022/03/29 07:24:50;;;;;;;;;;;6.80;99.90;;;;;;5016979;28;19925;-75
2022/03/29 07:27:17;;;;;;;;;;;6.80;99.90;;;;;;5015444;28;19956;-75
2022/03/29 07:29:43;;;;;;;;;;;6.80;99.90;;;;;;4999592;28;20337;-74
2022/03/29 07:32:10;;;;;;;;;;;6.90;99.90;;;;;;5004306;28;19933;-75
2022/03/29 07:34:36;;;;;;;;;;;6.90;99.90;;;;;;5012763;28;20189;-75
2022/03/29 07:37:03;;;;;;;;;;;7.20;99.90;;;;;;5004958;28;19940;-75
2022/03/29 07:39:29;;;;;;;;;;;7.10;99.90;;;;;;4999122;28;19925;-75
2022/03/29 07:41:56;;;;;;;;;;;7.00;99.90;;;;;;5017783;28;19932;-74
2022/03/29 07:44:23;;;;;;;;;;;7.00;99.90;;;;;;5027662;28;20034;-74
2022/03/29 07:46:50;;;;;;;;;;;7.10;99.90;;;;;;5026465;28;19925;-76
2022/03/29 07:49:17;;;;;;;;;;;7.00;99.90;;;;;;5019337;28;19932;-76
2022/03/29 07:51:43;;;;;;;;;;;7.10;99.90;;;;;;5028820;28;19979;-74
2022/03/29 07:54:10;;;;;;;;;;;7.30;99.90;;;;;;5010585;28;20376;-74
2022/03/29 07:56:36;;;;;;;;;;;7.40;99.90;;;;;;5026101;28;20013;-74
2022/03/29 07:59:03;;;;;;;;;;;7.50;99.90;;;;;;5033044;28;19925;-74
2022/03/29 08:01:30;;;;;;;;;;;7.70;99.90;;;;;;5030223;28;19925;-74
2022/03/29 08:03:56;;;;;;;;;;;7.70;99.90;;;;;;5031804;28;20372;-73
2022/03/29 08:06:23;;;;;;;;;;;7.70;99.90;;;;;;5034164;28;19992;-74
2022/03/29 08:08:49;;;;;;;;;;;7.70;99.90;;;;;;5022890;28;19925;-73
2022/03/29 08:11:16;;;;;;;;;;;7.80;99.90;;;;;;5001312;28;19960;-74
2022/03/29 08:13:42;;;;;;;;;;;7.90;99.90;;;;;;5031881;28;19931;-74
2022/03/29 08:16:09;;;;;;;;;;;7.90;99.90;;;;;;5010525;28;20008;-75
2022/03/29 08:18:38;;;;;;;;;;;7.90;99.90;;;;;;5027412;28;19926;-74
2022/03/29 08:21:47;;;;;;;;;;;7.90;99.90;;;;;;5025202;28;19929;-73
2022/03/29 08:23:51;;;;;;;;;;;8.00;99.90;;;;;;5031733;28;19932;-74
2022/03/29 08:26:17;;;;;;;;;;;8.00;99.90;;;;;;5024423;28;19936;-74
2022/03/29 08:28:44;;;;;;;;;;;8.00;99.90;;;;;;5009728;28;19925;-74
2022/03/29 08:31:11;;;;;;;;;;;7.90;99.90;;;;;;5015822;28;19925;-75
2022/03/29 08:33:37;;;;;;;;;;;7.80;99.90;;;;;;5019213;28;20019;-75
2022/03/29 08:36:04;;;;;;;;;;;7.70;99.90;;;;;;5019410;28;20290;-75
2022/03/29 08:38:30;;;;;;;;;;;7.70;99.90;;;;;;5022586;28;20291;-75
2022/03/29 08:40:57;;;;;;;;;;;7.80;99.90;;;;;;5026984;28;20399;-75
2022/03/29 08:43:24;;;;;;;;;;;8.00;99.90;;;;;;5019512;28;19925;-76
2022/03/29 08:45:51;;;;;;;;;;;8.10;99.90;;;;;;5031316;28;20301;-75
2022/03/29 08:48:17;;;;;;;;;;;8.10;99.90;;;;;;5023056;28;19926;-75
2022/03/29 08:50:45;;;;;;;;;;;8.00;99.90;;;;;;5020830;28;19933;-75
2022/03/29 08:53:12;;;;;;;;;;;8.20;99.90;;;;;;5020008;28;19929;-73
2022/03/29 08:55:42;;;;;;;;;;;8.20;99.90;;;;;;5005270;28;20281;-75
2022/03/29 08:58:09;;;;;;;;;;;8.20;99.90;;;;;;5028220;28;19933;-74
2022/03/29 09:00:35;;;;;;;;;;;8.20;99.90;;;;;;5023124;28;19925;-74
2022/03/29 09:03:02;;;;;;;;;;;8.20;99.90;;;;;;5023267;28;19925;-73
2022/03/29 09:05:29;;;;;;;;;;;8.30;99.90;;;;;;5018874;28;19937;-75
2022/03/29 09:07:56;;;;;;;;;;;8.30;99.90;;;;;;5034247;28;19979;-75
2022/03/29 09:10:22;;;;;;;;;;;8.40;99.90;;;;;;5030248;28;19932;-76
2022/03/29 09:12:49;;;;;;;;;;;8.40;99.90;;;;;;5001950;28;19934;-75
2022/03/29 09:15:16;;;;;;;;;;;8.40;99.90;;;;;;5028957;28;19925;-74
2022/03/29 09:17:42;;;;;;;;;;;8.50;99.90;;;;;;5009651;28;20325;-75
2022/03/29 09:20:10;;;;;;;;;;;8.60;99.90;;;;;;5029467;28;19984;-74
2022/03/29 09:22:36;;;;;;;;;;;8.50;99.90;;;;;;5020637;28;19931;-75
2022/03/29 09:25:03;;;;;;;;;;;8.60;99.90;;;;;;5029676;28;19929;-75
2022/03/29 09:27:30;;;;;;;;;;;8.50;99.90;;;;;;5015480;28;19932;-75
2022/03/29 09:29:56;;;;;;;;;;;8.60;99.90;;;;;;5016911;28;19926;-74
2022/03/29 09:32:23;;;;;;;;;;;8.70;99.90;;;;;;5028328;28;19925;-75
2022/03/29 09:34:50;;;;;;;;;;;8.60;99.90;;;;;;5025132;28;19932;-76
2022/03/29 09:37:17;;;;;;;;;;;8.70;99.90;;;;;;5024549;28;19925;-74
2022/03/29 09:39:44;;;;;;;;;;;8.50;99.90;;;;;;5027321;28;20400;-74
2022/03/29 09:42:11;;;;;;;;;;;8.70;99.90;;;;;;5027907;28;19925;-75
2022/03/29 09:44:39;;;;;;;;;;;8.70;99.90;;;;;;5023454;28;19952;-75
2022/03/29 09:47:07;;;;;;;;;;;8.80;99.90;;;;;;5024126;28;19929;-75
2022/03/29 09:49:35;;;;;;;;;;;8.80;99.90;;;;;;5021859;28;19925;-75
2022/03/29 09:52:02;;;;;;;;;;;8.80;99.90;;;;;;5017443;28;20280;-74
2022/03/29 09:54:28;;;;;;;;;;;8.80;99.90;;;;;;5025293;28;21748;-77
2022/03/29 09:56:57;;;;;;;;;;;8.90;99.90;;;;;;5025071;28;19925;-76
2022/03/29 09:59:24;;;;;;;;;;;9.00;99.90;;;;;;5017498;28;19925;-75
2022/03/29 10:01:51;;;;;;;;;;;8.90;99.90;;;;;;5019425;28;19929;-75
2022/03/29 10:04:17;;;;;;;;;;;9.00;99.90;;;;;;5016361;28;19925;-75
2022/03/29 10:06:44;;;;;;;;;;;8.90;99.90;;;;;;5027096;28;20315;-75
2022/03/29 10:09:29;;;;;;;;;;;8.90;99.90;;;;;;5016644;28;20372;-74
2022/03/29 10:11:57;;;;;;;;;;;8.80;99.90;;;;;;5028353;28;19925;-75
2022/03/29 10:14:25;;;;;;;;;;;8.90;99.90;;;;;;5025271;28;19932;-74
2022/03/29 10:16:52;;;;;;;;;;;8.50;99.90;;;;;;5011532;28;19933;-75
2022/03/29 10:19:18;;;;;;;;;;;8.80;99.90;;;;;;5025892;28;19931;-74
2022/03/29 10:21:45;;;;;;;;;;;8.80;99.90;;;;;;5007151;28;19925;-75
2022/03/29 10:24:12;;;;;;;;;;;8.90;99.90;;;;;;5019623;28;20012;-75
2022/03/29 10:26:38;;;;;;;;;;;9.00;99.90;;;;;;5016247;28;19929;-75
2022/03/29 10:29:05;;;;;;;;;;;9.00;99.90;;;;;;5031751;28;19929;-74
2022/03/29 10:31:31;;;;;;;;;;;9.00;99.90;;;;;;5025107;28;20395;-77
2022/03/29 10:33:58;;;;;;;;;;;8.90;99.90;;;;;;5019839;28;19925;-74
2022/03/29 10:36:24;;;;;;;;;;;9.10;99.90;;;;;;5026680;28;20276;-74
2022/03/29 10:38:51;;;;;;;;;;;9.00;99.90;;;;;;5010334;28;20012;-75
2022/03/29 10:41:18;;;;;;;;;;;9.00;99.90;;;;;;5016448;28;19925;-74
2022/03/29 10:43:44;;;;;;;;;;;9.00;99.90;;;;;;5019361;28;19925;-75
2022/03/29 10:46:11;;;;;;;;;;;9.10;99.90;;;;;;5022509;28;20368;-73
2022/03/29 10:48:37;;;;;;;;;;;9.10;99.90;;;;;;5028945;28;20388;-75
2022/03/29 10:51:04;;;;;;;;;;;9.00;99.90;;;;;;5018180;28;19926;-75
2022/03/29 10:53:31;;;;;;;;;;;9.00;99.90;;;;;;5020700;28;20372;-75
2022/03/29 10:55:57;;;;;;;;;;;9.00;99.90;;;;;;5030932;28;19925;-75
2022/03/29 10:58:24;;;;;;;;;;;8.90;99.90;;;;;;5027515;28;19925;-75
2022/03/29 11:00:50;;;;;;;;;;;9.00;99.90;;;;;;5009066;28;19925;-75
2022/03/29 11:03:20;;;;;;;;;;;9.00;99.90;;;;;;5019139;28;19926;-75
2022/03/29 11:05:47;;;;;;;;;;;8.70;99.90;;;;;;5025924;28;19979;-75
2022/03/29 11:08:13;;;;;;;;;;;8.90;99.90;;;;;;5016037;28;20299;-74
2022/03/29 11:10:40;;;;;;;;;;;8.90;99.90;;;;;;5027408;28;19953;-75
2022/03/29 11:13:07;;;;;;;;;;;9.00;99.90;;;;;;5024902;28;19932;-75
2022/03/29 11:15:36;;;;;;;;;;;9.10;99.90;;;;;;5031894;28;19938;-77
2022/03/29 11:18:04;;;;;;;;;;;9.20;99.90;;;;;;5013193;28;19926;-75
2022/03/29 11:20:31;;;;;;;;;;;9.10;99.90;;;;;;4999147;28;19932;-75
2022/03/29 11:22:58;;;;;;;;;;;9.10;99.90;;;;;;5015470;28;19932;-76
2022/03/29 11:25:24;;;;;;;;;;;9.00;99.90;;;;;;5014693;28;19926;-75
2022/03/29 11:27:51;;;;;;;;;;;9.10;99.90;;;;;;5013805;28;19925;-75
2022/03/29 11:30:18;;;;;;;;;;;9.10;99.90;;;;;;5014645;28;19932;-75
2022/03/29 11:32:45;;;;;;;;;;;9.00;99.90;;;;;;5013382;28;20867;-75
2022/03/29 11:35:12;;;;;;;;;;;9.00;99.90;;;;;;5014488;28;20035;-75
2022/03/29 11:37:40;;;;;;;;;;;9.00;99.90;;;;;;5011698;28;19925;-75
2022/03/29 11:40:07;;;;;;;;;;;9.00;99.90;;;;;;5015309;28;19929;-75
2022/03/29 11:42:33;;;;;;;;;;;9.10;99.90;;;;;;5015050;28;19965;-75
2022/03/29 11:45:00;;;;;;;;;;;9.10;99.90;;;;;;5011856;28;19933;-75
2022/03/29 11:47:26;;;;;;;;;;;9.10;99.90;;;;;;4998075;28;19926;-75
2022/03/29 11:49:54;;;;;;;;;;;8.90;99.90;;;;;;5012208;28;19925;-75
2022/03/29 11:52:21;;;;;;;;;;;9.00;99.90;;;;;;4995580;28;19939;-76
2022/03/29 11:54:47;;;;;;;;;;;9.10;99.90;;;;;;5020465;28;19931;-76
2022/03/29 11:57:14;;;;;;;;;;;9.10;99.90;;;;;;4997424;28;19926;-75
2022/03/29 11:59:41;;;;;;;;;;;9.10;99.90;;;;;;5021324;28;19933;-76
2022/03/29 12:02:08;;;;;;;;;;;9.10;99.90;;;;;;4997045;28;19952;-76
2022/03/29 12:04:34;;;;;;;;;;;9.20;99.90;;;;;;5021688;28;20015;-75
2022/03/29 12:07:01;;;;;;;;;;;9.20;99.90;;;;;;5016068;28;19940;-77
2022/03/29 12:09:27;;;;;;;;;;;9.20;99.90;;;;;;5013474;28;19925;-75
2022/03/29 12:11:54;;;;;;;;;;;9.10;99.90;;;;;;5018177;28;19933;-75
2022/03/29 12:14:20;;;;;;;;;;;9.10;99.90;;;;;;4996050;28;19929;-76
2022/03/29 12:16:47;;;;;;;;;;;9.10;99.90;;;;;;5013833;28;20400;-74
2022/03/29 12:19:14;;;;;;;;;;;9.10;99.90;;;;;;5013314;28;20369;-75
2022/03/29 12:21:40;;;;;;;;;;;9.10;99.90;;;;;;5003542;28;19929;-78
2022/03/29 12:24:07;;;;;;;;;;;9.20;99.90;;;;;;5024061;28;19925;-75
2022/03/29 12:26:33;;;;;;;;;;;9.30;99.90;;;;;;5025642;28;19933;-75
2022/03/29 12:29:00;;;;;;;;;;;9.20;99.90;;;;;;5029501;28;20668;-75
2022/03/29 12:31:28;;;;;;;;;;;9.10;99.90;;;;;;5016642;28;19935;-75
2022/03/29 12:33:54;;;;;;;;;;;9.30;99.90;;;;;;5026078;28;19925;-75
2022/03/29 12:36:21;;;;;;;;;;;9.20;99.90;;;;;;5027355;28;19929;-76
2022/03/29 12:38:48;;;;;;;;;;;9.30;99.90;;;;;;5016051;28;20297;-74
2022/03/29 12:41:14;;;;;;;;;;;9.30;99.90;;;;;;4999950;28;19926;-75
2022/03/29 12:43:41;;;;;;;;;;;9.30;99.90;;;;;;5000400;28;19925;-75
2022/03/29 12:46:09;;;;;;;;;;;9.40;99.90;;;;;;5023796;28;20539;-79
2022/03/29 12:48:35;;;;;;;;;;;9.40;99.90;;;;;;5001097;28;19933;-77
2022/03/29 12:51:05;;;;;;;;;;;9.40;99.90;;;;;;4995876;28;19934;-76
2022/03/29 12:53:31;;;;;;;;;;;9.40;99.90;;;;;;5017462;28;20011;-76
2022/03/29 12:55:58;;;;;;;;;;;9.40;99.90;;;;;;5020890;28;19929;-75
2022/03/29 12:58:25;;;;;;;;;;;9.40;99.90;;;;;;5016006;28;19925;-76
2022/03/29 13:00:52;;;;;;;;;;;9.30;99.90;;;;;;5004796;28;19926;-76
2022/03/29 13:03:19;;;;;;;;;;;9.30;99.90;;;;;;5018634;28;20561;-76
2022/03/29 13:05:45;;;;;;;;;;;9.30;99.90;;;;;;5013393;28;19925;-78
2022/03/29 13:08:12;;;;;;;;;;;9.40;99.90;;;;;;5011701;28;19925;-76
2022/03/29 13:10:40;;;;;;;;;;;9.40;99.90;;;;;;5021599;28;19929;-78
2022/03/29 13:13:06;;;;;;;;;;;9.50;99.90;;;;;;4995926;28;20036;-76
2022/03/29 13:15:34;;;;;;;;;;;9.40;99.90;;;;;;5011582;28;19929;-76
2022/03/29 13:18:01;;;;;;;;;;;9.40;99.90;;;;;;5022282;28;19951;-76
2022/03/29 13:20:27;;;;;;;;;;;9.60;99.90;;;;;;5012767;28;20305;-76
2022/03/29 13:22:54;;;;;;;;;;;9.70;99.90;;;;;;5014920;28;20030;-77
2022/03/29 13:25:20;;;;;;;;;;;9.70;99.90;;;;;;5015857;28;19940;-76
2022/03/29 13:27:47;;;;;;;;;;;9.60;99.90;;;;;;5006611;28;19929;-78
2022/03/29 13:30:14;;;;;;;;;;;9.70;99.90;;;;;;5004939;28;19925;-75
2022/03/29 13:32:40;;;;;;;;;;;9.70;99.90;;;;;;5017641;28;19936;-75
2022/03/29 13:35:07;;;;;;;;;;;9.70;99.90;;;;;;4994323;28;19921;-76
2022/03/29 13:37:34;;;;;;;;;;;9.60;99.90;;;;;;5004267;28;19932;-75
2022/03/29 13:40:02;;;;;;;;;;;9.60;99.90;;;;;;5020711;28;19976;-76
2022/03/29 13:42:28;;;;;;;;;;;9.70;99.90;;;;;;5006113;28;20392;-76
2022/03/29 13:44:55;;;;;;;;;;;9.70;99.90;;;;;;5022366;28;20360;-77
2022/03/29 13:47:21;;;;;;;;;;;9.70;99.90;;;;;;5019129;28;20388;-77
2022/03/29 13:49:48;;;;;;;;;;;9.40;99.90;;;;;;5023510;28;19929;-79
2022/03/29 13:52:15;;;;;;;;;;;9.70;99.90;;;;;;5021429;28;19929;-76
2022/03/29 13:54:41;;;;;;;;;;;9.70;99.90;;;;;;5024577;28;19933;-76
2022/03/29 13:57:08;;;;;;;;;;;9.70;99.90;;;;;;4996960;28;20575;-76
2022/03/29 13:59:34;;;;;;;;;;;9.80;99.90;;;;;;5015434;28;19933;-76
2022/03/29 14:02:01;;;;;;;;;;;9.90;99.90;;;;;;5004902;28;19929;-76
2022/03/29 14:04:28;;;;;;;;;;;9.80;99.90;;;;;;5018617;28;19929;-78
2022/03/29 14:06:54;;;;;;;;;;;9.60;99.90;;;;;;5011917;28;20328;-77
2022/03/29 14:09:21;;;;;;;;;;;9.60;99.90;;;;;;5011478;28;20389;-76
2022/03/29 14:11:48;;;;;;;;;;;9.60;99.90;;;;;;5011663;28;20483;-76
2022/03/29 14:14:14;;;;;;;;;;;9.60;99.90;;;;;;5020527;28;19992;-77
2022/03/29 14:16:41;;;;;;;;;;;9.70;99.90;;;;;;5028966;28;19940;-76
2022/03/29 14:19:08;;;;;;;;;;;9.60;99.90;;;;;;5013172;28;19932;-76
2022/03/29 14:21:34;;;;;;;;;;;9.70;99.90;;;;;;5023948;28;20012;-76
2022/03/29 14:24:01;;;;;;;;;;;9.70;99.90;;;;;;5003458;28;19933;-76
2022/03/29 14:26:28;;;;;;;;;;;9.70;99.90;;;;;;5006889;28;19935;-76
2022/03/29 14:28:54;;;;;;;;;;;9.70;99.90;;;;;;5005198;28;19930;-77
2022/03/29 14:31:21;;;;;;;;;;;9.80;99.90;;;;;;5015608;28;19933;-76
2022/03/29 14:33:47;;;;;;;;;;;9.80;99.90;;;;;;5003985;28;19925;-76
2022/03/29 14:36:14;;;;;;;;;;;9.80;99.90;;;;;;5017098;28;19925;-76